sensor_id;sensor_type;location;lat;lon;timestamp;P1;durP1;ratioP1;P2;durP2;ratioP2
51190;SDS011;37253;48.736;9.294;2023-12-28T00:00:33;3.05;;;1.85;;
51190;SDS011;37253;48.736;9.294;2023-12-28T00:02:33;3.17;;;2.30;;
51190;SDS011;37253;48.736;9.294;2023-12-28T00:04:34;3.70;;;2.28;;
51190;SDS011;37253;48.736;9.294;2023-12-28T00:06:34;3.15;;;1.88;;
51190;SDS011;37253;48.736;9.294;2023-12-28T00:08:35;2.83;;;2.05;;
51190;SDS011;37253;48.736;9.294;2023-12-28T00:10:35;3.95;;;2.50;;
51190;SDS011;37253;48.736;9.294;2023-12-28T00:12:37;3.55;;;2.20;;
51190;SDS011;37253;48.736;9.294;2023-12-28T00:14:37;3.90;;;1.95;;
51190;SDS011;37253;48.736;9.294;2023-12-28T00:16:38;2.63;;;1.88;;
51190;SDS011;37253;48.736;9.294;2023-12-28T00:18:38;4.13;;;2.42;;
51190;SDS011;37253;48.736;9.294;2023-12-28T00:20:38;3.65;;;2.35;;
51190;SDS011;37253;48.736;9.294;2023-12-28T00:22:39;2.55;;;2.13;;
51190;SDS011;37253;48.736;9.294;2023-12-28T00:24:39;3.75;;;1.90;;
51190;SDS011;37253;48.736;9.294;2023-12-28T00:26:39;2.53;;;2.28;;
51190;SDS011;37253;48.736;9.294;2023-12-28T00:28:40;4.50;;;2.22;;
51190;SDS011;37253;48.736;9.294;2023-12-28T00:30:40;5.82;;;2.47;;
51190;SDS011;37253;48.736;9.294;2023-12-28T00:32:40;4.60;;;1.95;;
51190;SDS011;37253;48.736;9.294;2023-12-28T00:34:43;2.55;;;1.98;;
51190;SDS011;37253;48.736;9.294;2023-12-28T00:36:43;2.67;;;2.00;;
51190;SDS011;37253;48.736;9.294;2023-12-28T00:38:44;2.45;;;2.00;;
51190;SDS011;37253;48.736;9.294;2023-12-28T00:40:44;4.78;;;2.38;;
51190;SDS011;37253;48.736;9.294;2023-12-28T00:42:44;3.83;;;2.25;;
51190;SDS011;37253;48.736;9.294;2023-12-28T00:44:44;4.05;;;2.33;;
51190;SDS011;37253;48.736;9.294;2023-12-28T00:46:45;4.47;;;1.95;;
51190;SDS011;37253;48.736;9.294;2023-12-28T00:48:45;4.47;;;2.67;;
51190;SDS011;37253;48.736;9.294;2023-12-28T00:50:45;3.75;;;2.20;;
51190;SDS011;37253;48.736;9.294;2023-12-28T00:52:46;5.40;;;2.15;;
51190;SDS011;37253;48.736;9.294;2023-12-28T00:54:46;3.00;;;2.13;;
51190;SDS011;37253;48.736;9.294;2023-12-28T00:56:46;2.80;;;2.25;;
51190;SDS011;37253;48.736;9.294;2023-12-28T00:58:47;3.17;;;2.30;;
51190;SDS011;37253;48.736;9.294;2023-12-28T01:00:47;3.08;;;2.10;;
51190;SDS011;37253;48.736;9.294;2023-12-28T01:02:47;3.22;;;2.33;;
51190;SDS011;37253;48.736;9.294;2023-12-28T01:04:49;4.43;;;2.13;;
51190;SDS011;37253;48.736;9.294;2023-12-28T01:06:49;3.30;;;2.30;;
51190;SDS011;37253;48.736;9.294;2023-12-28T01:08:50;2.20;;;2.00;;
51190;SDS011;37253;48.736;9.294;2023-12-28T01:10:50;4.95;;;2.20;;
51190;SDS011;37253;48.736;9.294;2023-12-28T01:12:50;2.90;;;2.30;;
51190;SDS011;37253;48.736;9.294;2023-12-28T01:14:51;3.65;;;2.20;;
51190;SDS011;37253;48.736;9.294;2023-12-28T01:16:51;1.85;;;1.70;;
51190;SDS011;37253;48.736;9.294;2023-12-28T01:18:52;3.40;;;1.90;;
51190;SDS011;37253;48.736;9.294;2023-12-28T01:20:52;3.08;;;2.05;;
51190;SDS011;37253;48.736;9.294;2023-12-28T01:22:52;2.88;;;2.10;;
51190;SDS011;37253;48.736;9.294;2023-12-28T01:24:53;2.30;;;2.00;;
51190;SDS011;37253;48.736;9.294;2023-12-28T01:26:53;3.92;;;2.10;;
51190;SDS011;37253;48.736;9.294;2023-12-28T01:28:53;4.10;;;2.10;;
51190;SDS011;37253;48.736;9.294;2023-12-28T01:30:54;2.30;;;1.88;;
51190;SDS011;37253;48.736;9.294;2023-12-28T01:32:54;2.88;;;2.10;;
51190;SDS011;37253;48.736;9.294;2023-12-28T01:34:55;4.45;;;2.03;;
51190;SDS011;37253;48.736;9.294;2023-12-28T01:36:55;2.67;;;2.00;;
51190;SDS011;37253;48.736;9.294;2023-12-28T01:38:55;3.03;;;2.10;;
51190;SDS011;37253;48.736;9.294;2023-12-28T01:40:56;5.00;;;2.58;;
51190;SDS011;37253;48.736;9.294;2023-12-28T01:42:56;3.58;;;1.98;;
51190;SDS011;37253;48.736;9.294;2023-12-28T01:44:56;2.53;;;1.80;;
51190;SDS011;37253;48.736;9.294;2023-12-28T01:46:57;2.63;;;1.90;;
51190;SDS011;37253;48.736;9.294;2023-12-28T01:48:58;3.15;;;1.90;;
51190;SDS011;37253;48.736;9.294;2023-12-28T01:50:59;2.78;;;2.00;;
51190;SDS011;37253;48.736;9.294;2023-12-28T01:53:00;1.90;;;1.60;;
51190;SDS011;37253;48.736;9.294;2023-12-28T01:55:01;2.50;;;1.70;;
51190;SDS011;37253;48.736;9.294;2023-12-28T01:57:01;3.08;;;2.10;;
51190;SDS011;37253;48.736;9.294;2023-12-28T01:59:03;3.22;;;1.90;;
51190;SDS011;37253;48.736;9.294;2023-12-28T02:01:03;2.88;;;1.95;;
51190;SDS011;37253;48.736;9.294;2023-12-28T02:03:05;4.82;;;2.05;;
51190;SDS011;37253;48.736;9.294;2023-12-28T02:05:06;3.35;;;1.90;;
51190;SDS011;37253;48.736;9.294;2023-12-28T02:07:07;2.90;;;1.95;;
51190;SDS011;37253;48.736;9.294;2023-12-28T02:09:08;2.58;;;1.80;;
51190;SDS011;37253;48.736;9.294;2023-12-28T02:11:08;2.30;;;1.77;;
51190;SDS011;37253;48.736;9.294;2023-12-28T02:13:09;4.32;;;2.03;;
51190;SDS011;37253;48.736;9.294;2023-12-28T02:15:09;1.90;;;1.60;;
51190;SDS011;37253;48.736;9.294;2023-12-28T02:19:50;2.78;;;2.00;;
51190;SDS011;37253;48.736;9.294;2023-12-28T02:21:50;2.78;;;2.10;;
51190;SDS011;37253;48.736;9.294;2023-12-28T02:23:52;2.30;;;1.80;;
51190;SDS011;37253;48.736;9.294;2023-12-28T02:25:52;2.03;;;1.70;;
51190;SDS011;37253;48.736;9.294;2023-12-28T02:27:52;3.47;;;2.03;;
51190;SDS011;37253;48.736;9.294;2023-12-28T02:29:53;2.33;;;1.80;;
51190;SDS011;37253;48.736;9.294;2023-12-28T02:31:59;2.22;;;1.73;;
51190;SDS011;37253;48.736;9.294;2023-12-28T02:34:12;3.53;;;2.15;;
51190;SDS011;37253;48.736;9.294;2023-12-28T02:38:15;3.05;;;2.03;;
51190;SDS011;37253;48.736;9.294;2023-12-28T02:40:16;2.63;;;1.83;;
51190;SDS011;37253;48.736;9.294;2023-12-28T02:42:17;2.40;;;2.10;;
51190;SDS011;37253;48.736;9.294;2023-12-28T02:44:18;2.95;;;2.20;;
51190;SDS011;37253;48.736;9.294;2023-12-28T02:46:18;3.45;;;2.20;;
51190;SDS011;37253;48.736;9.294;2023-12-28T02:48:18;2.15;;;1.80;;
51190;SDS011;37253;48.736;9.294;2023-12-28T02:50:19;3.60;;;2.05;;
51190;SDS011;37253;48.736;9.294;2023-12-28T02:52:19;3.08;;;1.80;;
51190;SDS011;37253;48.736;9.294;2023-12-28T02:54:19;3.78;;;1.90;;
51190;SDS011;37253;48.736;9.294;2023-12-28T02:56:20;2.22;;;1.75;;
51190;SDS011;37253;48.736;9.294;2023-12-28T02:58:20;2.35;;;1.90;;
51190;SDS011;37253;48.736;9.294;2023-12-28T03:00:21;2.83;;;1.60;;
51190;SDS011;37253;48.736;9.294;2023-12-28T03:02:22;1.90;;;1.55;;
51190;SDS011;37253;48.736;9.294;2023-12-28T03:04:22;2.58;;;1.67;;
51190;SDS011;37253;48.736;9.294;2023-12-28T03:06:22;3.72;;;1.88;;
51190;SDS011;37253;48.736;9.294;2023-12-28T03:08:23;1.92;;;1.60;;
51190;SDS011;37253;48.736;9.294;2023-12-28T03:10:23;2.53;;;1.70;;
51190;SDS011;37253;48.736;9.294;2023-12-28T03:12:24;3.10;;;1.90;;
51190;SDS011;37253;48.736;9.294;2023-12-28T03:14:24;5.43;;;1.60;;
51190;SDS011;37253;48.736;9.294;2023-12-28T03:16:24;2.65;;;1.50;;
51190;SDS011;37253;48.736;9.294;2023-12-28T03:18:25;1.73;;;1.45;;
51190;SDS011;37253;48.736;9.294;2023-12-28T03:20:25;3.35;;;1.90;;
51190;SDS011;37253;48.736;9.294;2023-12-28T03:22:25;2.15;;;1.70;;
51190;SDS011;37253;48.736;9.294;2023-12-28T03:24:25;2.03;;;1.48;;
51190;SDS011;37253;48.736;9.294;2023-12-28T03:26:26;2.30;;;1.77;;
51190;SDS011;37253;48.736;9.294;2023-12-28T03:28:26;2.45;;;1.42;;
51190;SDS011;37253;48.736;9.294;2023-12-28T03:30:26;2.72;;;1.60;;
51190;SDS011;37253;48.736;9.294;2023-12-28T03:32:27;2.38;;;1.77;;
51190;SDS011;37253;48.736;9.294;2023-12-28T03:34:27;2.13;;;1.70;;
51190;SDS011;37253;48.736;9.294;2023-12-28T03:36:29;3.10;;;1.70;;
51190;SDS011;37253;48.736;9.294;2023-12-28T03:38:29;1.90;;;1.40;;
51190;SDS011;37253;48.736;9.294;2023-12-28T03:40:29;2.78;;;1.60;;
51190;SDS011;37253;48.736;9.294;2023-12-28T03:42:30;2.33;;;1.50;;
51190;SDS011;37253;48.736;9.294;2023-12-28T03:44:30;2.58;;;1.60;;
51190;SDS011;37253;48.736;9.294;2023-12-28T03:46:30;2.72;;;1.70;;
51190;SDS011;37253;48.736;9.294;2023-12-28T03:48:31;2.00;;;1.58;;
51190;SDS011;37253;48.736;9.294;2023-12-28T03:50:31;2.40;;;1.70;;
51190;SDS011;37253;48.736;9.294;2023-12-28T03:52:31;2.33;;;1.67;;
51190;SDS011;37253;48.736;9.294;2023-12-28T03:54:32;2.72;;;1.50;;
51190;SDS011;37253;48.736;9.294;2023-12-28T03:56:32;1.52;;;1.38;;
51190;SDS011;37253;48.736;9.294;2023-12-28T03:58:35;2.38;;;1.40;;
51190;SDS011;37253;48.736;9.294;2023-12-28T04:00:35;4.40;;;1.60;;
51190;SDS011;37253;48.736;9.294;2023-12-28T04:02:36;1.95;;;1.70;;
51190;SDS011;37253;48.736;9.294;2023-12-28T04:04:36;2.10;;;1.35;;
51190;SDS011;37253;48.736;9.294;2023-12-28T04:06:37;3.13;;;1.52;;
51190;SDS011;37253;48.736;9.294;2023-12-28T04:08:38;2.10;;;1.60;;
51190;SDS011;37253;48.736;9.294;2023-12-28T04:10:38;2.80;;;1.80;;
51190;SDS011;37253;48.736;9.294;2023-12-28T04:12:39;2.95;;;1.40;;
51190;SDS011;37253;48.736;9.294;2023-12-28T04:14:39;4.72;;;1.40;;
51190;SDS011;37253;48.736;9.294;2023-12-28T04:16:39;2.50;;;1.67;;
51190;SDS011;37253;48.736;9.294;2023-12-28T04:18:43;1.65;;;1.48;;
51190;SDS011;37253;48.736;9.294;2023-12-28T04:20:43;3.05;;;1.73;;
51190;SDS011;37253;48.736;9.294;2023-12-28T04:22:44;1.90;;;1.38;;
51190;SDS011;37253;48.736;9.294;2023-12-28T04:24:45;1.42;;;1.20;;
51190;SDS011;37253;48.736;9.294;2023-12-28T04:26:45;1.77;;;1.50;;
51190;SDS011;37253;48.736;9.294;2023-12-28T04:28:45;2.25;;;1.42;;
51190;SDS011;37253;48.736;9.294;2023-12-28T04:30:46;2.40;;;1.48;;
51190;SDS011;37253;48.736;9.294;2023-12-28T04:32:46;1.70;;;1.30;;
51190;SDS011;37253;48.736;9.294;2023-12-28T04:34:47;1.70;;;1.40;;
51190;SDS011;37253;48.736;9.294;2023-12-28T04:36:47;2.10;;;1.50;;
51190;SDS011;37253;48.736;9.294;2023-12-28T04:38:48;2.20;;;1.50;;
51190;SDS011;37253;48.736;9.294;2023-12-28T04:40:49;1.50;;;1.40;;
51190;SDS011;37253;48.736;9.294;2023-12-28T04:42:49;2.03;;;1.45;;
51190;SDS011;37253;48.736;9.294;2023-12-28T04:44:49;1.83;;;1.40;;
51190;SDS011;37253;48.736;9.294;2023-12-28T04:46:50;2.50;;;1.40;;
51190;SDS011;37253;48.736;9.294;2023-12-28T04:48:50;1.70;;;1.45;;
51190;SDS011;37253;48.736;9.294;2023-12-28T04:50:50;2.00;;;1.40;;
51190;SDS011;37253;48.736;9.294;2023-12-28T04:52:51;1.80;;;1.27;;
51190;SDS011;37253;48.736;9.294;2023-12-28T04:54:51;2.22;;;1.63;;
51190;SDS011;37253;48.736;9.294;2023-12-28T04:56:51;2.00;;;1.42;;
51190;SDS011;37253;48.736;9.294;2023-12-28T04:58:52;2.08;;;1.40;;
51190;SDS011;37253;48.736;9.294;2023-12-28T05:00:52;2.83;;;1.48;;
51190;SDS011;37253;48.736;9.294;2023-12-28T05:02:53;3.20;;;1.70;;
51190;SDS011;37253;48.736;9.294;2023-12-28T05:04:53;2.20;;;1.48;;
51190;SDS011;37253;48.736;9.294;2023-12-28T05:06:53;1.60;;;1.25;;
51190;SDS011;37253;48.736;9.294;2023-12-28T05:08:53;4.35;;;1.73;;
51190;SDS011;37253;48.736;9.294;2023-12-28T05:10:54;1.60;;;1.30;;
51190;SDS011;37253;48.736;9.294;2023-12-28T05:12:54;2.10;;;1.50;;
51190;SDS011;37253;48.736;9.294;2023-12-28T05:14:54;1.58;;;1.30;;
51190;SDS011;37253;48.736;9.294;2023-12-28T05:16:55;1.67;;;1.30;;
51190;SDS011;37253;48.736;9.294;2023-12-28T05:18:55;2.40;;;1.30;;
51190;SDS011;37253;48.736;9.294;2023-12-28T05:20:55;1.60;;;1.33;;
51190;SDS011;37253;48.736;9.294;2023-12-28T05:22:55;1.50;;;1.30;;
51190;SDS011;37253;48.736;9.294;2023-12-28T05:24:56;1.50;;;1.35;;
51190;SDS011;37253;48.736;9.294;2023-12-28T05:26:56;2.42;;;1.40;;
51190;SDS011;37253;48.736;9.294;2023-12-28T05:28:57;1.77;;;1.48;;
51190;SDS011;37253;48.736;9.294;2023-12-28T05:30:57;1.52;;;1.40;;
51190;SDS011;37253;48.736;9.294;2023-12-28T05:32:59;1.83;;;1.33;;
51190;SDS011;37253;48.736;9.294;2023-12-28T05:34:59;1.67;;;1.30;;
51190;SDS011;37253;48.736;9.294;2023-12-28T05:36:59;2.17;;;1.42;;
51190;SDS011;37253;48.736;9.294;2023-12-28T05:38:59;1.70;;;1.20;;
51190;SDS011;37253;48.736;9.294;2023-12-28T05:41:00;1.88;;;1.20;;
51190;SDS011;37253;48.736;9.294;2023-12-28T05:43:00;1.60;;;1.50;;
51190;SDS011;37253;48.736;9.294;2023-12-28T05:45:00;2.78;;;1.30;;
51190;SDS011;37253;48.736;9.294;2023-12-28T05:47:01;2.15;;;1.27;;
51190;SDS011;37253;48.736;9.294;2023-12-28T05:49:01;2.22;;;1.40;;
51190;SDS011;37253;48.736;9.294;2023-12-28T05:51:01;2.03;;;1.60;;
51190;SDS011;37253;48.736;9.294;2023-12-28T05:53:02;1.58;;;1.30;;
51190;SDS011;37253;48.736;9.294;2023-12-28T05:55:03;1.98;;;1.55;;
51190;SDS011;37253;48.736;9.294;2023-12-28T05:57:04;1.63;;;1.10;;
51190;SDS011;37253;48.736;9.294;2023-12-28T05:59:04;1.70;;;1.20;;
51190;SDS011;37253;48.736;9.294;2023-12-28T06:01:04;1.50;;;1.30;;
51190;SDS011;37253;48.736;9.294;2023-12-28T06:03:05;2.25;;;1.40;;
51190;SDS011;37253;48.736;9.294;2023-12-28T06:05:05;3.72;;;1.40;;
51190;SDS011;37253;48.736;9.294;2023-12-28T06:07:06;1.55;;;1.10;;
51190;SDS011;37253;48.736;9.294;2023-12-28T06:09:06;2.22;;;1.40;;
51190;SDS011;37253;48.736;9.294;2023-12-28T06:11:07;1.45;;;1.30;;
51190;SDS011;37253;48.736;9.294;2023-12-28T06:13:08;1.80;;;1.45;;
51190;SDS011;37253;48.736;9.294;2023-12-28T06:15:08;1.90;;;1.20;;
51190;SDS011;37253;48.736;9.294;2023-12-28T06:17:09;1.83;;;1.20;;
51190;SDS011;37253;48.736;9.294;2023-12-28T06:19:09;1.92;;;1.30;;
51190;SDS011;37253;48.736;9.294;2023-12-28T06:21:10;1.75;;;1.10;;
51190;SDS011;37253;48.736;9.294;2023-12-28T06:23:10;2.03;;;1.40;;
51190;SDS011;37253;48.736;9.294;2023-12-28T06:25:11;1.80;;;1.30;;
51190;SDS011;37253;48.736;9.294;2023-12-28T06:27:11;3.40;;;1.33;;
51190;SDS011;37253;48.736;9.294;2023-12-28T06:29:12;1.42;;;1.10;;
51190;SDS011;37253;48.736;9.294;2023-12-28T06:31:12;1.92;;;1.10;;
51190;SDS011;37253;48.736;9.294;2023-12-28T06:33:12;1.85;;;1.10;;
51190;SDS011;37253;48.736;9.294;2023-12-28T06:35:13;1.70;;;1.25;;
51190;SDS011;37253;48.736;9.294;2023-12-28T06:37:14;1.65;;;1.30;;
51190;SDS011;37253;48.736;9.294;2023-12-28T06:39:14;2.70;;;1.55;;
51190;SDS011;37253;48.736;9.294;2023-12-28T06:41:15;1.58;;;1.20;;
51190;SDS011;37253;48.736;9.294;2023-12-28T06:43:15;1.83;;;1.35;;
51190;SDS011;37253;48.736;9.294;2023-12-28T06:45:16;2.70;;;1.40;;
51190;SDS011;37253;48.736;9.294;2023-12-28T06:47:16;1.75;;;1.45;;
51190;SDS011;37253;48.736;9.294;2023-12-28T06:49:16;1.35;;;1.20;;
51190;SDS011;37253;48.736;9.294;2023-12-28T06:51:17;1.27;;;1.10;;
51190;SDS011;37253;48.736;9.294;2023-12-28T06:53:21;1.95;;;1.20;;
51190;SDS011;37253;48.736;9.294;2023-12-28T06:55:22;2.80;;;1.25;;
51190;SDS011;37253;48.736;9.294;2023-12-28T06:57:22;1.10;;;1.00;;
51190;SDS011;37253;48.736;9.294;2023-12-28T06:59:22;1.45;;;1.10;;
51190;SDS011;37253;48.736;9.294;2023-12-28T07:01:22;2.65;;;1.48;;
51190;SDS011;37253;48.736;9.294;2023-12-28T07:03:23;1.80;;;1.33;;
51190;SDS011;37253;48.736;9.294;2023-12-28T07:05:25;1.30;;;1.10;;
51190;SDS011;37253;48.736;9.294;2023-12-28T07:07:25;1.75;;;1.38;;
51190;SDS011;37253;48.736;9.294;2023-12-28T07:09:25;1.75;;;1.25;;
51190;SDS011;37253;48.736;9.294;2023-12-28T07:11:26;2.00;;;1.25;;
51190;SDS011;37253;48.736;9.294;2023-12-28T07:13:26;1.85;;;1.50;;
51190;SDS011;37253;48.736;9.294;2023-12-28T07:15:27;1.48;;;1.33;;
51190;SDS011;37253;48.736;9.294;2023-12-28T07:17:27;2.00;;;1.48;;
51190;SDS011;37253;48.736;9.294;2023-12-28T07:19:27;1.65;;;1.30;;
51190;SDS011;37253;48.736;9.294;2023-12-28T07:21:28;1.25;;;1.10;;
51190;SDS011;37253;48.736;9.294;2023-12-28T07:23:28;1.30;;;1.13;;
51190;SDS011;37253;48.736;9.294;2023-12-28T07:25:28;1.85;;;1.40;;
51190;SDS011;37253;48.736;9.294;2023-12-28T07:27:29;1.48;;;1.23;;
51190;SDS011;37253;48.736;9.294;2023-12-28T07:29:29;1.95;;;1.27;;
51190;SDS011;37253;48.736;9.294;2023-12-28T07:31:30;1.50;;;1.38;;
51190;SDS011;37253;48.736;9.294;2023-12-28T07:33:31;2.40;;;1.45;;
51190;SDS011;37253;48.736;9.294;2023-12-28T07:35:31;1.85;;;1.30;;
51190;SDS011;37253;48.736;9.294;2023-12-28T07:37:32;1.90;;;1.20;;
51190;SDS011;37253;48.736;9.294;2023-12-28T07:39:32;1.40;;;1.30;;
51190;SDS011;37253;48.736;9.294;2023-12-28T07:41:32;1.85;;;1.30;;
51190;SDS011;37253;48.736;9.294;2023-12-28T07:43:33;1.98;;;1.50;;
51190;SDS011;37253;48.736;9.294;2023-12-28T07:45:33;2.30;;;1.50;;
51190;SDS011;37253;48.736;9.294;2023-12-28T07:47:33;1.83;;;1.20;;
51190;SDS011;37253;48.736;9.294;2023-12-28T07:49:34;2.25;;;1.27;;
51190;SDS011;37253;48.736;9.294;2023-12-28T07:51:34;1.70;;;1.30;;
51190;SDS011;37253;48.736;9.294;2023-12-28T07:53:34;1.75;;;1.48;;
51190;SDS011;37253;48.736;9.294;2023-12-28T07:55:34;1.40;;;1.10;;
51190;SDS011;37253;48.736;9.294;2023-12-28T07:57:35;3.30;;;1.27;;
51190;SDS011;37253;48.736;9.294;2023-12-28T07:59:36;1.73;;;1.40;;
51190;SDS011;37253;48.736;9.294;2023-12-28T08:01:37;2.08;;;1.35;;
51190;SDS011;37253;48.736;9.294;2023-12-28T08:03:37;2.33;;;1.38;;
51190;SDS011;37253;48.736;9.294;2023-12-28T08:05:37;2.22;;;1.40;;
51190;SDS011;37253;48.736;9.294;2023-12-28T08:07:37;1.90;;;1.33;;
51190;SDS011;37253;48.736;9.294;2023-12-28T08:09:38;2.28;;;1.40;;
51190;SDS011;37253;48.736;9.294;2023-12-28T08:11:38;1.75;;;1.52;;
51190;SDS011;37253;48.736;9.294;2023-12-28T08:13:38;2.38;;;1.33;;
51190;SDS011;37253;48.736;9.294;2023-12-28T08:15:39;1.92;;;1.42;;
51190;SDS011;37253;48.736;9.294;2023-12-28T08:17:40;1.67;;;1.30;;
51190;SDS011;37253;48.736;9.294;2023-12-28T08:19:40;2.38;;;1.33;;
51190;SDS011;37253;48.736;9.294;2023-12-28T08:21:40;7.05;;;1.85;;
51190;SDS011;37253;48.736;9.294;2023-12-28T08:23:41;1.30;;;1.20;;
51190;SDS011;37253;48.736;9.294;2023-12-28T08:25:41;1.85;;;1.30;;
51190;SDS011;37253;48.736;9.294;2023-12-28T08:27:41;1.48;;;1.38;;
51190;SDS011;37253;48.736;9.294;2023-12-28T08:29:42;2.50;;;1.38;;
51190;SDS011;37253;48.736;9.294;2023-12-28T08:31:42;2.65;;;1.30;;
51190;SDS011;37253;48.736;9.294;2023-12-28T08:33:42;1.98;;;1.40;;
51190;SDS011;37253;48.736;9.294;2023-12-28T08:35:43;2.70;;;1.50;;
51190;SDS011;37253;48.736;9.294;2023-12-28T08:37:43;1.63;;;1.33;;
51190;SDS011;37253;48.736;9.294;2023-12-28T08:39:43;2.08;;;1.40;;
51190;SDS011;37253;48.736;9.294;2023-12-28T08:41:43;2.10;;;1.40;;
51190;SDS011;37253;48.736;9.294;2023-12-28T08:43:44;2.85;;;1.67;;
51190;SDS011;37253;48.736;9.294;2023-12-28T08:45:44;2.25;;;1.50;;
51190;SDS011;37253;48.736;9.294;2023-12-28T08:47:45;2.33;;;1.52;;
51190;SDS011;37253;48.736;9.294;2023-12-28T08:49:45;2.10;;;1.60;;
51190;SDS011;37253;48.736;9.294;2023-12-28T08:51:48;4.70;;;1.65;;
51190;SDS011;37253;48.736;9.294;2023-12-28T08:53:48;2.90;;;1.52;;
51190;SDS011;37253;48.736;9.294;2023-12-28T08:55:48;2.20;;;1.60;;
51190;SDS011;37253;48.736;9.294;2023-12-28T08:57:49;2.60;;;1.48;;
51190;SDS011;37253;48.736;9.294;2023-12-28T08:59:49;2.17;;;1.65;;
51190;SDS011;37253;48.736;9.294;2023-12-28T09:01:52;1.77;;;1.40;;
51190;SDS011;37253;48.736;9.294;2023-12-28T09:03:53;3.28;;;1.27;;
51190;SDS011;37253;48.736;9.294;2023-12-28T09:05:54;1.75;;;1.30;;
51190;SDS011;37253;48.736;9.294;2023-12-28T09:07:54;2.47;;;1.50;;
51190;SDS011;37253;48.736;9.294;2023-12-28T09:09:55;1.67;;;1.48;;
51190;SDS011;37253;48.736;9.294;2023-12-28T09:11:55;2.88;;;1.70;;
51190;SDS011;37253;48.736;9.294;2023-12-28T09:13:55;2.05;;;1.50;;
51190;SDS011;37253;48.736;9.294;2023-12-28T09:15:56;1.90;;;1.50;;
51190;SDS011;37253;48.736;9.294;2023-12-28T09:17:56;1.98;;;1.27;;
51190;SDS011;37253;48.736;9.294;2023-12-28T09:19:56;2.10;;;1.40;;
51190;SDS011;37253;48.736;9.294;2023-12-28T09:21:58;1.60;;;1.38;;
51190;SDS011;37253;48.736;9.294;2023-12-28T09:23:58;1.90;;;1.60;;
51190;SDS011;37253;48.736;9.294;2023-12-28T09:25:59;3.28;;;1.60;;
51190;SDS011;37253;48.736;9.294;2023-12-28T09:28:00;2.55;;;1.50;;
51190;SDS011;37253;48.736;9.294;2023-12-28T09:30:00;1.50;;;1.40;;
51190;SDS011;37253;48.736;9.294;2023-12-28T09:32:00;3.50;;;1.60;;
51190;SDS011;37253;48.736;9.294;2023-12-28T09:34:01;2.03;;;1.50;;
51190;SDS011;37253;48.736;9.294;2023-12-28T09:36:03;3.28;;;1.52;;
51190;SDS011;37253;48.736;9.294;2023-12-28T09:38:03;3.40;;;1.70;;
51190;SDS011;37253;48.736;9.294;2023-12-28T09:40:04;2.72;;;1.88;;
51190;SDS011;37253;48.736;9.294;2023-12-28T09:42:06;6.43;;;1.50;;
51190;SDS011;37253;48.736;9.294;2023-12-28T09:44:13;4.18;;;1.60;;
51190;SDS011;37253;48.736;9.294;2023-12-28T09:46:14;3.13;;;2.00;;
51190;SDS011;37253;48.736;9.294;2023-12-28T09:48:19;4.13;;;1.67;;
51190;SDS011;37253;48.736;9.294;2023-12-28T09:50:21;2.30;;;1.80;;
51190;SDS011;37253;48.736;9.294;2023-12-28T09:52:23;4.15;;;1.70;;
51190;SDS011;37253;48.736;9.294;2023-12-28T09:54:24;4.05;;;2.03;;
51190;SDS011;37253;48.736;9.294;2023-12-28T09:56:24;2.58;;;1.70;;
51190;SDS011;37253;48.736;9.294;2023-12-28T09:58:24;6.07;;;1.90;;
51190;SDS011;37253;48.736;9.294;2023-12-28T10:00:25;6.90;;;1.63;;
51190;SDS011;37253;48.736;9.294;2023-12-28T10:02:26;4.97;;;1.98;;
51190;SDS011;37253;48.736;9.294;2023-12-28T10:04:27;4.97;;;1.90;;
51190;SDS011;37253;48.736;9.294;2023-12-28T10:06:29;2.67;;;1.77;;
51190;SDS011;37253;48.736;9.294;2023-12-28T10:08:29;6.38;;;1.75;;
51190;SDS011;37253;48.736;9.294;2023-12-28T10:10:29;12.15;;;2.80;;
51190;SDS011;37253;48.736;9.294;2023-12-28T10:12:32;8.10;;;2.38;;
51190;SDS011;37253;48.736;9.294;2023-12-28T10:14:32;5.03;;;2.50;;
51190;SDS011;37253;48.736;9.294;2023-12-28T10:16:34;8.90;;;2.33;;
51190;SDS011;37253;48.736;9.294;2023-12-28T10:18:34;8.18;;;2.70;;
51190;SDS011;37253;48.736;9.294;2023-12-28T10:20:35;4.65;;;2.55;;
51190;SDS011;37253;48.736;9.294;2023-12-28T10:22:37;11.43;;;2.92;;
51190;SDS011;37253;48.736;9.294;2023-12-28T10:24:40;8.30;;;2.53;;
51190;SDS011;37253;48.736;9.294;2023-12-28T10:26:42;5.75;;;2.80;;
51190;SDS011;37253;48.736;9.294;2023-12-28T10:28:43;9.73;;;2.72;;
51190;SDS011;37253;48.736;9.294;2023-12-28T10:30:44;9.65;;;2.65;;
51190;SDS011;37253;48.736;9.294;2023-12-28T10:32:44;10.50;;;3.00;;
51190;SDS011;37253;48.736;9.294;2023-12-28T10:34:45;14.88;;;3.13;;
51190;SDS011;37253;48.736;9.294;2023-12-28T10:36:46;10.60;;;2.47;;
51190;SDS011;37253;48.736;9.294;2023-12-28T10:38:47;11.35;;;3.13;;
51190;SDS011;37253;48.736;9.294;2023-12-28T10:40:49;7.22;;;3.08;;
51190;SDS011;37253;48.736;9.294;2023-12-28T10:43:01;8.45;;;2.58;;
51190;SDS011;37253;48.736;9.294;2023-12-28T10:45:03;4.80;;;2.22;;
51190;SDS011;37253;48.736;9.294;2023-12-28T10:47:05;5.40;;;2.90;;
51190;SDS011;37253;48.736;9.294;2023-12-28T10:49:15;12.55;;;3.00;;
51190;SDS011;37253;48.736;9.294;2023-12-28T10:51:16;5.10;;;2.67;;
51190;SDS011;37253;48.736;9.294;2023-12-28T11:02:14;7.20;;;2.90;;
51190;SDS011;37253;48.736;9.294;2023-12-28T11:06:33;7.03;;;2.80;;
51190;SDS011;37253;48.736;9.294;2023-12-28T11:08:35;5.10;;;2.75;;
51190;SDS011;37253;48.736;9.294;2023-12-28T11:10:35;6.85;;;3.33;;
51190;SDS011;37253;48.736;9.294;2023-12-28T11:12:37;5.78;;;2.88;;
51190;SDS011;37253;48.736;9.294;2023-12-28T11:14:39;7.15;;;2.95;;
51190;SDS011;37253;48.736;9.294;2023-12-28T11:16:40;12.32;;;3.03;;
51190;SDS011;37253;48.736;9.294;2023-12-28T11:18:41;5.93;;;2.63;;
51190;SDS011;37253;48.736;9.294;2023-12-28T11:20:43;6.32;;;2.72;;
51190;SDS011;37253;48.736;9.294;2023-12-28T11:22:43;6.40;;;3.03;;
51190;SDS011;37253;48.736;9.294;2023-12-28T11:24:44;5.78;;;2.90;;
51190;SDS011;37253;48.736;9.294;2023-12-28T11:26:44;7.28;;;3.20;;
51190;SDS011;37253;48.736;9.294;2023-12-28T11:28:45;5.20;;;2.67;;
51190;SDS011;37253;48.736;9.294;2023-12-28T11:30:46;5.45;;;2.58;;
51190;SDS011;37253;48.736;9.294;2023-12-28T11:32:47;5.93;;;2.55;;
51190;SDS011;37253;48.736;9.294;2023-12-28T11:34:56;8.05;;;2.85;;
51190;SDS011;37253;48.736;9.294;2023-12-28T11:36:57;8.85;;;3.22;;
51190;SDS011;37253;48.736;9.294;2023-12-28T11:39:01;7.47;;;3.28;;
51190;SDS011;37253;48.736;9.294;2023-12-28T11:41:03;6.00;;;2.70;;
51190;SDS011;37253;48.736;9.294;2023-12-28T11:43:04;6.57;;;3.13;;
51190;SDS011;37253;48.736;9.294;2023-12-28T11:45:16;6.65;;;2.65;;
51190;SDS011;37253;48.736;9.294;2023-12-28T11:47:24;4.60;;;2.67;;
51190;SDS011;37253;48.736;9.294;2023-12-28T11:49:25;19.75;;;4.63;;
51190;SDS011;37253;48.736;9.294;2023-12-28T11:51:27;83.88;;;23.98;;
51190;SDS011;37253;48.736;9.294;2023-12-28T11:53:28;55.80;;;16.65;;
51190;SDS011;37253;48.736;9.294;2023-12-28T11:55:28;90.57;;;25.27;;
51190;SDS011;37253;48.736;9.294;2023-12-28T11:57:28;61.92;;;16.88;;
51190;SDS011;37253;48.736;9.294;2023-12-28T11:59:29;40.47;;;12.20;;
51190;SDS011;37253;48.736;9.294;2023-12-28T12:01:31;33.08;;;10.02;;
51190;SDS011;37253;48.736;9.294;2023-12-28T12:03:31;36.75;;;9.75;;
51190;SDS011;37253;48.736;9.294;2023-12-28T12:05:31;98.65;;;47.92;;
51190;SDS011;37253;48.736;9.294;2023-12-28T12:07:32;41.83;;;14.30;;
51190;SDS011;37253;48.736;9.294;2023-12-28T12:09:32;51.03;;;15.38;;
51190;SDS011;37253;48.736;9.294;2023-12-28T12:11:34;47.97;;;15.18;;
51190;SDS011;37253;48.736;9.294;2023-12-28T12:13:37;56.60;;;18.15;;
51190;SDS011;37253;48.736;9.294;2023-12-28T12:15:37;43.65;;;15.38;;
51190;SDS011;37253;48.736;9.294;2023-12-28T12:17:38;49.20;;;14.63;;
51190;SDS011;37253;48.736;9.294;2023-12-28T12:19:39;222.38;;;55.55;;
51190;SDS011;37253;48.736;9.294;2023-12-28T12:21:39;67.28;;;21.25;;